sensor_id;sensor_type;location;lat;lon;timestamp;temperature;humidity
24426;DHT22;12611;44.446;26.000;2023-05-10T00:01:43;14.00;86.80
24426;DHT22;12611;44.446;26.000;2023-05-10T00:04:12;14.00;86.60
24426;DHT22;12611;44.446;26.000;2023-05-10T00:06:42;14.00;86.40
24426;DHT22;12611;44.446;26.000;2023-05-10T00:09:10;13.90;86.20
24426;DHT22;12611;44.446;26.000;2023-05-10T00:11:38;13.90;86.20
24426;DHT22;12611;44.446;26.000;2023-05-10T00:14:07;13.90;86.00
24426;DHT22;12611;44.446;26.000;2023-05-10T00:16:35;13.90;86.10
24426;DHT22;12611;44.446;26.000;2023-05-10T00:19:03;13.80;86.00
24426;DHT22;12611;44.446;26.000;2023-05-10T00:21:32;13.80;86.20
24426;DHT22;12611;44.446;26.000;2023-05-10T00:24:02;13.70;86.10
24426;DHT22;12611;44.446;26.000;2023-05-10T00:26:30;13.70;86.00
24426;DHT22;12611;44.446;26.000;2023-05-10T00:28:59;13.70;86.00
24426;DHT22;12611;44.446;26.000;2023-05-10T00:31:27;13.60;86.00
24426;DHT22;12611;44.446;26.000;2023-05-10T00:33:55;13.60;86.10
24426;DHT22;12611;44.446;26.000;2023-05-10T00:36:24;13.50;86.30
24426;DHT22;12611;44.446;26.000;2023-05-10T00:38:54;13.50;86.20
24426;DHT22;12611;44.446;26.000;2023-05-10T00:41:23;13.50;86.30
24426;DHT22;12611;44.446;26.000;2023-05-10T00:43:52;13.50;86.40
24426;DHT22;12611;44.446;26.000;2023-05-10T00:46:20;13.40;86.50
24426;DHT22;12611;44.446;26.000;2023-05-10T00:48:49;13.40;86.40
24426;DHT22;12611;44.446;26.000;2023-05-10T00:51:17;13.40;86.50
24426;DHT22;12611;44.446;26.000;2023-05-10T00:53:46;13.40;86.80
24426;DHT22;12611;44.446;26.000;2023-05-10T00:56:15;13.30;86.60
24426;DHT22;12611;44.446;26.000;2023-05-10T00:58:48;13.30;86.70
24426;DHT22;12611;44.446;26.000;2023-05-10T01:01:16;13.30;86.90
24426;DHT22;12611;44.446;26.000;2023-05-10T01:03:45;13.30;86.80
24426;DHT22;12611;44.446;26.000;2023-05-10T01:06:14;13.30;87.90
24426;DHT22;12611;44.446;26.000;2023-05-10T01:08:42;13.30;86.80
24426;DHT22;12611;44.446;26.000;2023-05-10T01:11:11;13.20;86.80
24426;DHT22;12611;44.446;26.000;2023-05-10T01:13:42;13.20;87.20
24426;DHT22;12611;44.446;26.000;2023-05-10T01:16:12;13.20;87.60
24426;DHT22;12611;44.446;26.000;2023-05-10T01:18:41;13.20;87.70
24426;DHT22;12611;44.446;26.000;2023-05-10T01:21:22;13.20;88.10
24426;DHT22;12611;44.446;26.000;2023-05-10T01:24:12;13.20;88.20
24426;DHT22;12611;44.446;26.000;2023-05-10T01:27:06;13.10;88.10
24426;DHT22;12611;44.446;26.000;2023-05-10T01:29:59;13.10;88.10
24426;DHT22;12611;44.446;26.000;2023-05-10T01:32:37;13.10;88.10
24426;DHT22;12611;44.446;26.000;2023-05-10T01:35:13;13.10;88.40
24426;DHT22;12611;44.446;26.000;2023-05-10T01:37:46;13.00;88.70
24426;DHT22;12611;44.446;26.000;2023-05-10T01:40:23;13.00;88.50
24426;DHT22;12611;44.446;26.000;2023-05-10T01:43:02;13.00;88.60
24426;DHT22;12611;44.446;26.000;2023-05-10T01:45:33;13.00;88.90
24426;DHT22;12611;44.446;26.000;2023-05-10T01:48:07;13.00;89.00
24426;DHT22;12611;44.446;26.000;2023-05-10T01:50:39;13.00;89.30
24426;DHT22;12611;44.446;26.000;2023-05-10T01:53:11;12.90;89.20
24426;DHT22;12611;44.446;26.000;2023-05-10T01:55:44;12.90;89.70
24426;DHT22;12611;44.446;26.000;2023-05-10T01:58:18;12.90;89.40
24426;DHT22;12611;44.446;26.000;2023-05-10T02:00:50;12.90;89.50
24426;DHT22;12611;44.446;26.000;2023-05-10T02:03:22;12.90;89.70
24426;DHT22;12611;44.446;26.000;2023-05-10T02:05:52;12.90;89.80
24426;DHT22;12611;44.446;26.000;2023-05-10T02:08:22;12.90;90.00
24426;DHT22;12611;44.446;26.000;2023-05-10T02:10:52;12.90;90.00
24426;DHT22;12611;44.446;26.000;2023-05-10T02:13:21;12.90;90.10
24426;DHT22;12611;44.446;26.000;2023-05-10T02:15:51;12.90;90.10
24426;DHT22;12611;44.446;26.000;2023-05-10T02:18:24;12.80;90.00
24426;DHT22;12611;44.446;26.000;2023-05-10T02:20:54;12.80;90.00
24426;DHT22;12611;44.446;26.000;2023-05-10T02:23:23;12.80;90.00
24426;DHT22;12611;44.446;26.000;2023-05-10T02:25:54;12.80;90.10
24426;DHT22;12611;44.446;26.000;2023-05-10T02:28:23;12.80;90.00
24426;DHT22;12611;44.446;26.000;2023-05-10T02:30:59;12.80;90.00
24426;DHT22;12611;44.446;26.000;2023-05-10T02:33:34;12.80;90.00
24426;DHT22;12611;44.446;26.000;2023-05-10T02:36:03;12.90;90.00
24426;DHT22;12611;44.446;26.000;2023-05-10T02:38:33;12.90;90.00
24426;DHT22;12611;44.446;26.000;2023-05-10T02:41:04;12.90;90.10
24426;DHT22;12611;44.446;26.000;2023-05-10T02:43:33;12.90;90.20
24426;DHT22;12611;44.446;26.000;2023-05-10T02:46:03;12.90;90.20
24426;DHT22;12611;44.446;26.000;2023-05-10T02:48:31;12.90;90.00
24426;DHT22;12611;44.446;26.000;2023-05-10T02:51:05;12.90;90.00
24426;DHT22;12611;44.446;26.000;2023-05-10T02:53:36;12.90;90.00
24426;DHT22;12611;44.446;26.000;2023-05-10T02:56:12;12.90;90.10
24426;DHT22;12611;44.446;26.000;2023-05-10T02:58:42;12.90;90.30
24426;DHT22;12611;44.446;26.000;2023-05-10T03:01:10;12.90;90.20
24426;DHT22;12611;44.446;26.000;2023-05-10T03:03:38;12.90;90.20
24426;DHT22;12611;44.446;26.000;2023-05-10T03:06:08;12.90;90.10
24426;DHT22;12611;44.446;26.000;2023-05-10T03:08:36;13.00;90.30
24426;DHT22;12611;44.446;26.000;2023-05-10T03:11:20;12.90;90.50
24426;DHT22;12611;44.446;26.000;2023-05-10T03:14:00;12.90;90.40
24426;DHT22;12611;44.446;26.000;2023-05-10T03:16:35;13.00;90.40
24426;DHT22;12611;44.446;26.000;2023-05-10T03:19:13;13.00;90.50
24426;DHT22;12611;44.446;26.000;2023-05-10T03:21:50;13.00;90.50
24426;DHT22;12611;44.446;26.000;2023-05-10T03:24:20;13.00;90.40
24426;DHT22;12611;44.446;26.000;2023-05-10T03:26:50;13.10;90.30
24426;DHT22;12611;44.446;26.000;2023-05-10T03:29:20;13.10;90.30
24426;DHT22;12611;44.446;26.000;2023-05-10T03:31:50;13.10;90.30
24426;DHT22;12611;44.446;26.000;2023-05-10T03:34:23;13.20;90.20
24426;DHT22;12611;44.446;26.000;2023-05-10T03:36:53;13.20;90.20
24426;DHT22;12611;44.446;26.000;2023-05-10T03:39:21;13.20;90.20
24426;DHT22;12611;44.446;26.000;2023-05-10T03:41:51;13.30;90.20
24426;DHT22;12611;44.446;26.000;2023-05-10T03:44:19;13.30;90.20
24426;DHT22;12611;44.446;26.000;2023-05-10T03:46:47;13.40;90.30
24426;DHT22;12611;44.446;26.000;2023-05-10T03:49:16;13.40;90.30
24426;DHT22;12611;44.446;26.000;2023-05-10T03:51:44;13.40;90.30
24426;DHT22;12611;44.446;26.000;2023-05-10T03:54:14;13.40;90.30
24426;DHT22;12611;44.446;26.000;2023-05-10T03:56:42;13.40;90.30
24426;DHT22;12611;44.446;26.000;2023-05-10T03:59:10;13.50;90.40
24426;DHT22;12611;44.446;26.000;2023-05-10T04:01:39;13.50;90.20
24426;DHT22;12611;44.446;26.000;2023-05-10T04:04:07;13.50;90.20
24426;DHT22;12611;44.446;26.000;2023-05-10T04:06:35;13.50;90.10
24426;DHT22;12611;44.446;26.000;2023-05-10T04:09:04;13.60;90.10
24426;DHT22;12611;44.446;26.000;2023-05-10T04:11:33;13.60;90.00
24426;DHT22;12611;44.446;26.000;2023-05-10T04:14:02;13.60;90.00
24426;DHT22;12611;44.446;26.000;2023-05-10T04:16:30;13.60;90.00
24426;DHT22;12611;44.446;26.000;2023-05-10T04:18:59;13.70;89.90
24426;DHT22;12611;44.446;26.000;2023-05-10T04:21:27;13.70;89.80
24426;DHT22;12611;44.446;26.000;2023-05-10T04:23:56;13.80;89.80
24426;DHT22;12611;44.446;26.000;2023-05-10T04:26:24;13.80;89.60
24426;DHT22;12611;44.446;26.000;2023-05-10T04:28:54;13.80;89.30
24426;DHT22;12611;44.446;26.000;2023-05-10T04:31:22;13.90;89.20
24426;DHT22;12611;44.446;26.000;2023-05-10T04:33:50;13.90;89.20
24426;DHT22;12611;44.446;26.000;2023-05-10T04:36:19;14.00;89.20
24426;DHT22;12611;44.446;26.000;2023-05-10T04:38:47;14.00;88.90
24426;DHT22;12611;44.446;26.000;2023-05-10T04:41:15;14.10;89.00
24426;DHT22;12611;44.446;26.000;2023-05-10T04:43:43;14.10;88.30
24426;DHT22;12611;44.446;26.000;2023-05-10T04:46:13;14.20;88.30
24426;DHT22;12611;44.446;26.000;2023-05-10T04:48:41;14.20;87.50
24426;DHT22;12611;44.446;26.000;2023-05-10T04:51:10;14.20;87.30
24426;DHT22;12611;44.446;26.000;2023-05-10T04:53:39;14.30;87.40
24426;DHT22;12611;44.446;26.000;2023-05-10T04:56:12;14.30;88.10
24426;DHT22;12611;44.446;26.000;2023-05-10T04:58:40;14.40;87.20
24426;DHT22;12611;44.446;26.000;2023-05-10T05:01:08;14.50;87.10
24426;DHT22;12611;44.446;26.000;2023-05-10T05:03:38;14.50;86.60
24426;DHT22;12611;44.446;26.000;2023-05-10T05:06:07;14.60;86.50
24426;DHT22;12611;44.446;26.000;2023-05-10T05:08:35;14.70;86.10
24426;DHT22;12611;44.446;26.000;2023-05-10T05:11:04;14.70;85.50
24426;DHT22;12611;44.446;26.000;2023-05-10T05:13:32;14.70;85.50
24426;DHT22;12611;44.446;26.000;2023-05-10T05:16:01;14.80;84.70
24426;DHT22;12611;44.446;26.000;2023-05-10T05:18:29;14.80;84.60
24426;DHT22;12611;44.446;26.000;2023-05-10T05:20:59;14.90;84.50
24426;DHT22;12611;44.446;26.000;2023-05-10T05:23:27;14.90;84.10
24426;DHT22;12611;44.446;26.000;2023-05-10T05:25:56;14.90;84.20
24426;DHT22;12611;44.446;26.000;2023-05-10T05:28:24;15.00;84.30
24426;DHT22;12611;44.446;26.000;2023-05-10T05:30:52;15.10;84.00
24426;DHT22;12611;44.446;26.000;2023-05-10T05:33:21;15.10;83.60
24426;DHT22;12611;44.446;26.000;2023-05-10T05:35:49;15.20;82.70
24426;DHT22;12611;44.446;26.000;2023-05-10T05:38:19;15.20;82.30
24426;DHT22;12611;44.446;26.000;2023-05-10T05:40:47;15.20;82.40
24426;DHT22;12611;44.446;26.000;2023-05-10T05:43:15;15.30;82.30
24426;DHT22;12611;44.446;26.000;2023-05-10T05:45:44;15.40;82.20
24426;DHT22;12611;44.446;26.000;2023-05-10T05:48:12;15.40;82.40
24426;DHT22;12611;44.446;26.000;2023-05-10T05:50:41;15.40;81.80
24426;DHT22;12611;44.446;26.000;2023-05-10T05:53:09;15.50;81.80
24426;DHT22;12611;44.446;26.000;2023-05-10T05:55:39;15.50;81.40
24426;DHT22;12611;44.446;26.000;2023-05-10T05:58:07;15.60;81.30
24426;DHT22;12611;44.446;26.000;2023-05-10T06:00:35;15.60;81.30
24426;DHT22;12611;44.446;26.000;2023-05-10T06:03:04;15.70;81.20
24426;DHT22;12611;44.446;26.000;2023-05-10T06:05:33;15.80;80.20
24426;DHT22;12611;44.446;26.000;2023-05-10T06:08:01;15.80;80.40
24426;DHT22;12611;44.446;26.000;2023-05-10T06:10:30;15.80;80.30
24426;DHT22;12611;44.446;26.000;2023-05-10T06:12:59;15.80;79.80
24426;DHT22;12611;44.446;26.000;2023-05-10T06:15:28;15.90;79.80
24426;DHT22;12611;44.446;26.000;2023-05-10T06:17:56;15.90;79.70
24426;DHT22;12611;44.446;26.000;2023-05-10T06:20:25;15.90;79.70
24426;DHT22;12611;44.446;26.000;2023-05-10T06:36:22;15.90;78.10
24426;DHT22;12611;44.446;26.000;2023-05-10T06:38:54;16.30;79.90
24426;DHT22;12611;44.446;26.000;2023-05-10T06:41:22;16.30;78.40
24426;DHT22;12611;44.446;26.000;2023-05-10T06:44:00;16.40;77.70
24426;DHT22;12611;44.446;26.000;2023-05-10T06:46:28;16.40;77.40
24426;DHT22;12611;44.446;26.000;2023-05-10T06:48:56;16.50;77.40
24426;DHT22;12611;44.446;26.000;2023-05-10T06:51:26;16.60;77.20
24426;DHT22;12611;44.446;26.000;2023-05-10T06:53:54;16.60;75.90
24426;DHT22;12611;44.446;26.000;2023-05-10T06:56:23;16.70;75.90
24426;DHT22;12611;44.446;26.000;2023-05-10T06:58:51;16.70;75.30
24426;DHT22;12611;44.446;26.000;2023-05-10T07:01:19;16.80;74.70
24426;DHT22;12611;44.446;26.000;2023-05-10T07:03:48;16.80;74.60
24426;DHT22;12611;44.446;26.000;2023-05-10T07:06:16;16.90;74.90
24426;DHT22;12611;44.446;26.000;2023-05-10T07:09:00;16.90;74.50
24426;DHT22;12611;44.446;26.000;2023-05-10T07:11:29;16.90;74.70
24426;DHT22;12611;44.446;26.000;2023-05-10T07:13:57;16.90;74.60
24426;DHT22;12611;44.446;26.000;2023-05-10T07:16:26;17.00;74.60
24426;DHT22;12611;44.446;26.000;2023-05-10T07:18:57;17.00;73.90
24426;DHT22;12611;44.446;26.000;2023-05-10T07:21:25;17.00;73.60
24426;DHT22;12611;44.446;26.000;2023-05-10T07:23:55;17.00;74.40
24426;DHT22;12611;44.446;26.000;2023-05-10T07:26:25;17.10;73.90
24426;DHT22;12611;44.446;26.000;2023-05-10T07:28:53;17.10;74.40
24426;DHT22;12611;44.446;26.000;2023-05-10T07:31:21;17.20;74.10
24426;DHT22;12611;44.446;26.000;2023-05-10T07:33:50;17.20;74.10
24426;DHT22;12611;44.446;26.000;2023-05-10T07:36:18;17.20;73.90
24426;DHT22;12611;44.446;26.000;2023-05-10T07:38:47;17.30;72.60
24426;DHT22;12611;44.446;26.000;2023-05-10T07:41:16;17.20;72.50
24426;DHT22;12611;44.446;26.000;2023-05-10T07:43:49;17.30;72.80
24426;DHT22;12611;44.446;26.000;2023-05-10T07:46:17;17.30;72.50
24426;DHT22;12611;44.446;26.000;2023-05-10T07:48:46;17.40;72.50
24426;DHT22;12611;44.446;26.000;2023-05-10T07:51:14;17.40;72.20
24426;DHT22;12611;44.446;26.000;2023-05-10T07:53:43;17.40;70.80
24426;DHT22;12611;44.446;26.000;2023-05-10T07:56:23;17.50;71.20
24426;DHT22;12611;44.446;26.000;2023-05-10T07:58:53;17.60;71.70
24426;DHT22;12611;44.446;26.000;2023-05-10T08:01:22;17.60;72.00
24426;DHT22;12611;44.446;26.000;2023-05-10T08:03:51;17.70;72.30
24426;DHT22;12611;44.446;26.000;2023-05-10T08:06:20;17.80;71.40
24426;DHT22;12611;44.446;26.000;2023-05-10T08:08:49;17.80;71.10
24426;DHT22;12611;44.446;26.000;2023-05-10T08:11:18;17.80;69.20
24426;DHT22;12611;44.446;26.000;2023-05-10T08:13:48;17.80;68.90
24426;DHT22;12611;44.446;26.000;2023-05-10T08:16:17;17.90;69.70
24426;DHT22;12611;44.446;26.000;2023-05-10T08:18:46;18.00;70.30
24426;DHT22;12611;44.446;26.000;2023-05-10T08:21:16;18.00;70.70
24426;DHT22;12611;44.446;26.000;2023-05-10T08:23:44;18.10;69.50
24426;DHT22;12611;44.446;26.000;2023-05-10T08:26:12;18.10;68.60
24426;DHT22;12611;44.446;26.000;2023-05-10T08:28:41;18.20;67.80
24426;DHT22;12611;44.446;26.000;2023-05-10T08:31:09;18.20;68.70
24426;DHT22;12611;44.446;26.000;2023-05-10T08:33:39;18.30;68.70
24426;DHT22;12611;44.446;26.000;2023-05-10T08:36:10;18.40;67.50
24426;DHT22;12611;44.446;26.000;2023-05-10T08:38:41;18.30;67.20
24426;DHT22;12611;44.446;26.000;2023-05-10T08:41:10;18.40;67.30
24426;DHT22;12611;44.446;26.000;2023-05-10T08:43:39;18.40;67.30
24426;DHT22;12611;44.446;26.000;2023-05-10T08:46:09;18.50;67.60
24426;DHT22;12611;44.446;26.000;2023-05-10T08:48:40;18.50;66.50
24426;DHT22;12611;44.446;26.000;2023-05-10T08:51:09;18.60;66.50
24426;DHT22;12611;44.446;26.000;2023-05-10T08:53:41;18.70;66.60
24426;DHT22;12611;44.446;26.000;2023-05-10T08:56:09;18.70;66.30
24426;DHT22;12611;44.446;26.000;2023-05-10T08:58:38;18.70;64.60
24426;DHT22;12611;44.446;26.000;2023-05-10T09:01:06;18.80;65.50
24426;DHT22;12611;44.446;26.000;2023-05-10T09:03:39;18.80;65.10
24426;DHT22;12611;44.446;26.000;2023-05-10T09:06:08;18.90;64.60
24426;DHT22;12611;44.446;26.000;2023-05-10T09:08:36;19.00;64.70
24426;DHT22;12611;44.446;26.000;2023-05-10T09:11:05;19.10;64.80
24426;DHT22;12611;44.446;26.000;2023-05-10T09:13:35;19.10;65.10
24426;DHT22;12611;44.446;26.000;2023-05-10T09:16:04;19.30;65.50
24426;DHT22;12611;44.446;26.000;2023-05-10T09:18:49;19.40;65.70
24426;DHT22;12611;44.446;26.000;2023-05-10T09:21:19;19.50;65.40
24426;DHT22;12611;44.446;26.000;2023-05-10T09:23:48;19.60;64.80
24426;DHT22;12611;44.446;26.000;2023-05-10T09:26:17;19.60;63.50
24426;DHT22;12611;44.446;26.000;2023-05-10T09:28:54;19.70;62.70
24426;DHT22;12611;44.446;26.000;2023-05-10T09:31:23;19.70;62.70
24426;DHT22;12611;44.446;26.000;2023-05-10T09:33:53;19.80;62.70
24426;DHT22;12611;44.446;26.000;2023-05-10T09:36:22;19.80;63.00
24426;DHT22;12611;44.446;26.000;2023-05-10T09:38:51;19.90;63.40
24426;DHT22;12611;44.446;26.000;2023-05-10T09:41:21;19.90;62.70
24426;DHT22;12611;44.446;26.000;2023-05-10T09:43:55;20.00;62.70
24426;DHT22;12611;44.446;26.000;2023-05-10T09:46:23;20.00;61.80
24426;DHT22;12611;44.446;26.000;2023-05-10T09:48:54;20.10;61.60
24426;DHT22;12611;44.446;26.000;2023-05-10T09:51:23;20.00;61.20
24426;DHT22;12611;44.446;26.000;2023-05-10T09:54:09;20.10;60.30
24426;DHT22;12611;44.446;26.000;2023-05-10T09:56:38;20.20;60.60
24426;DHT22;12611;44.446;26.000;2023-05-10T09:59:10;20.20;60.20
24426;DHT22;12611;44.446;26.000;2023-05-10T10:01:38;20.30;59.70
24426;DHT22;12611;44.446;26.000;2023-05-10T10:04:09;20.40;60.40
24426;DHT22;12611;44.446;26.000;2023-05-10T10:06:38;20.40;60.10
24426;DHT22;12611;44.446;26.000;2023-05-10T10:09:07;20.30;58.90
24426;DHT22;12611;44.446;26.000;2023-05-10T10:11:37;20.30;59.20
24426;DHT22;12611;44.446;26.000;2023-05-10T10:14:06;20.30;59.20
24426;DHT22;12611;44.446;26.000;2023-05-10T10:16:35;20.40;59.10
24426;DHT22;12611;44.446;26.000;2023-05-10T10:19:15;20.40;58.90
24426;DHT22;12611;44.446;26.000;2023-05-10T10:21:44;20.50;59.40
24426;DHT22;12611;44.446;26.000;2023-05-10T10:24:13;20.50;59.60
24426;DHT22;12611;44.446;26.000;2023-05-10T10:26:42;20.40;60.20
24426;DHT22;12611;44.446;26.000;2023-05-10T10:29:19;20.40;60.70
24426;DHT22;12611;44.446;26.000;2023-05-10T10:31:55;20.30;61.30
24426;DHT22;12611;44.446;26.000;2023-05-10T10:34:28;20.20;61.40
24426;DHT22;12611;44.446;26.000;2023-05-10T10:36:57;20.10;61.50
24426;DHT22;12611;44.446;26.000;2023-05-10T10:39:26;20.00;62.00
24426;DHT22;12611;44.446;26.000;2023-05-10T10:41:55;19.90;62.10
24426;DHT22;12611;44.446;26.000;2023-05-10T10:44:26;19.90;62.20
24426;DHT22;12611;44.446;26.000;2023-05-10T10:47:22;19.80;62.90
24426;DHT22;12611;44.446;26.000;2023-05-10T10:50:05;19.80;63.70
24426;DHT22;12611;44.446;26.000;2023-05-10T10:52:47;19.70;64.00
24426;DHT22;12611;44.446;26.000;2023-05-10T11:08:47;19.60;63.90
24426;DHT22;12611;44.446;26.000;2023-05-10T11:11:16;19.50;66.50
24426;DHT22;12611;44.446;26.000;2023-05-10T11:13:46;19.50;65.70
24426;DHT22;12611;44.446;26.000;2023-05-10T11:16:18;19.60;65.10
24426;DHT22;12611;44.446;26.000;2023-05-10T11:19:01;19.50;65.00
24426;DHT22;12611;44.446;26.000;2023-05-10T11:21:30;19.50;64.80
24426;DHT22;12611;44.446;26.000;2023-05-10T11:24:01;19.60;65.10
24426;DHT22;12611;44.446;26.000;2023-05-10T11:26:34;19.60;65.10
24426;DHT22;12611;44.446;26.000;2023-05-10T11:29:03;19.60;65.10
24426;DHT22;12611;44.446;26.000;2023-05-10T11:31:32;19.60;65.00
24426;DHT22;12611;44.446;26.000;2023-05-10T11:34:00;19.70;64.50
24426;DHT22;12611;44.446;26.000;2023-05-10T11:36:32;19.60;64.40
24426;DHT22;12611;44.446;26.000;2023-05-10T11:39:03;19.60;63.30
24426;DHT22;12611;44.446;26.000;2023-05-10T11:41:31;19.70;63.60
24426;DHT22;12611;44.446;26.000;2023-05-10T11:44:00;19.60;63.50
24426;DHT22;12611;44.446;26.000;2023-05-10T11:46:28;19.60;63.80
24426;DHT22;12611;44.446;26.000;2023-05-10T11:48:59;19.60;63.90
24426;DHT22;12611;44.446;26.000;2023-05-10T11:51:33;19.70;64.20
24426;DHT22;12611;44.446;26.000;2023-05-10T11:54:06;19.70;64.40
24426;DHT22;12611;44.446;26.000;2023-05-10T11:56:34;19.80;64.60
24426;DHT22;12611;44.446;26.000;2023-05-10T11:59:03;19.80;64.90
24426;DHT22;12611;44.446;26.000;2023-05-10T12:01:32;19.80;65.00
24426;DHT22;12611;44.446;26.000;2023-05-10T12:04:01;19.80;64.70
24426;DHT22;12611;44.446;26.000;2023-05-10T12:06:31;19.90;65.20
24426;DHT22;12611;44.446;26.000;2023-05-10T12:09:07;19.80;63.80
24426;DHT22;12611;44.446;26.000;2023-05-10T12:11:37;19.90;63.60
24426;DHT22;12611;44.446;26.000;2023-05-10T12:14:10;19.90;63.40
24426;DHT22;12611;44.446;26.000;2023-05-10T12:16:38;20.00;63.70
24426;DHT22;12611;44.446;26.000;2023-05-10T12:19:09;20.10;63.30
24426;DHT22;12611;44.446;26.000;2023-05-10T12:21:37;20.10;63.30
24426;DHT22;12611;44.446;26.000;2023-05-10T12:24:09;20.20;63.60
24426;DHT22;12611;44.446;26.000;2023-05-10T12:26:38;20.30;62.80
24426;DHT22;12611;44.446;26.000;2023-05-10T12:29:13;20.40;63.00
24426;DHT22;12611;44.446;26.000;2023-05-10T12:32:00;20.40;61.20
24426;DHT22;12611;44.446;26.000;2023-05-10T12:34:31;20.50;60.20
24426;DHT22;12611;44.446;26.000;2023-05-10T12:37:00;20.50;59.70
24426;DHT22;12611;44.446;26.000;2023-05-10T12:39:40;20.60;60.10
24426;DHT22;12611;44.446;26.000;2023-05-10T12:42:09;20.60;60.20
24426;DHT22;12611;44.446;26.000;2023-05-10T12:44:38;20.70;60.60
24426;DHT22;12611;44.446;26.000;2023-05-10T12:47:06;20.80;60.60
24426;DHT22;12611;44.446;26.000;2023-05-10T12:49:35;20.80;60.80
24426;DHT22;12611;44.446;26.000;2023-05-10T12:52:03;20.90;60.40
24426;DHT22;12611;44.446;26.000;2023-05-10T12:54:31;20.90;60.20
24426;DHT22;12611;44.446;26.000;2023-05-10T12:57:01;21.00;60.40
24426;DHT22;12611;44.446;26.000;2023-05-10T12:59:30;21.00;60.20
24426;DHT22;12611;44.446;26.000;2023-05-10T13:01:58;21.10;60.20
24426;DHT22;12611;44.446;26.000;2023-05-10T13:04:26;21.10;59.90
24426;DHT22;12611;44.446;26.000;2023-05-10T13:06:54;21.10;60.20
24426;DHT22;12611;44.446;26.000;2023-05-10T13:09:26;21.20;60.10
24426;DHT22;12611;44.446;26.000;2023-05-10T13:11:56;21.20;59.60
24426;DHT22;12611;44.446;26.000;2023-05-10T13:14:26;21.20;59.40
24426;DHT22;12611;44.446;26.000;2023-05-10T13:16:54;21.30;59.80
24426;DHT22;12611;44.446;26.000;2023-05-10T13:19:23;21.20;59.70
24426;DHT22;12611;44.446;26.000;2023-05-10T13:21:51;21.20;59.80
24426;DHT22;12611;44.446;26.000;2023-05-10T13:24:19;21.20;59.70
24426;DHT22;12611;44.446;26.000;2023-05-10T13:26:48;21.10;59.70
24426;DHT22;12611;44.446;26.000;2023-05-10T13:29:16;21.00;59.10
24426;DHT22;12611;44.446;26.000;2023-05-10T13:31:47;21.00;59.30
24426;DHT22;12611;44.446;26.000;2023-05-10T13:34:16;20.90;59.10
24426;DHT22;12611;44.446;26.000;2023-05-10T13:36:47;20.80;58.10
24426;DHT22;12611;44.446;26.000;2023-05-10T13:39:15;20.70;58.40
24426;DHT22;12611;44.446;26.000;2023-05-10T13:41:44;20.70;58.60
24426;DHT22;12611;44.446;26.000;2023-05-10T13:44:12;20.60;58.70
24426;DHT22;12611;44.446;26.000;2023-05-10T13:46:41;20.60;58.90
24426;DHT22;12611;44.446;26.000;2023-05-10T13:49:11;20.50;59.10
24426;DHT22;12611;44.446;26.000;2023-05-10T13:51:39;20.50;59.20
24426;DHT22;12611;44.446;26.000;2023-05-10T13:54:08;20.50;59.20
24426;DHT22;12611;44.446;26.000;2023-05-10T13:56:39;20.40;58.80
24426;DHT22;12611;44.446;26.000;2023-05-10T13:59:07;20.40;59.20
24426;DHT22;12611;44.446;26.000;2023-05-10T14:01:36;20.40;59.30
24426;DHT22;12611;44.446;26.000;2023-05-10T14:04:04;20.40;59.00
24426;DHT22;12611;44.446;26.000;2023-05-10T14:06:35;20.40;59.30
24426;DHT22;12611;44.446;26.000;2023-05-10T14:09:04;20.30;58.90
24426;DHT22;12611;44.446;26.000;2023-05-10T14:11:32;20.30;59.30
24426;DHT22;12611;44.446;26.000;2023-05-10T14:14:00;20.30;59.50
24426;DHT22;12611;44.446;26.000;2023-05-10T14:16:29;20.30;59.10
24426;DHT22;12611;44.446;26.000;2023-05-10T14:18:57;20.30;59.30
24426;DHT22;12611;44.446;26.000;2023-05-10T14:21:26;20.30;59.30
24426;DHT22;12611;44.446;26.000;2023-05-10T14:23:57;20.30;59.30
24426;DHT22;12611;44.446;26.000;2023-05-10T14:26:25;20.30;59.50
24426;DHT22;12611;44.446;26.000;2023-05-10T14:28:54;20.30;59.70
24426;DHT22;12611;44.446;26.000;2023-05-10T14:31:22;20.30;59.70
24426;DHT22;12611;44.446;26.000;2023-05-10T14:33:52;20.30;59.80
24426;DHT22;12611;44.446;26.000;2023-05-10T14:36:21;20.40;60.00
24426;DHT22;12611;44.446;26.000;2023-05-10T14:38:49;20.40;60.10
24426;DHT22;12611;44.446;26.000;2023-05-10T14:41:19;20.40;60.20
24426;DHT22;12611;44.446;26.000;2023-05-10T14:43:47;20.40;60.10
24426;DHT22;12611;44.446;26.000;2023-05-10T14:46:15;20.50;60.20
24426;DHT22;12611;44.446;26.000;2023-05-10T14:48:44;20.50;60.20
24426;DHT22;12611;44.446;26.000;2023-05-10T14:51:12;20.60;60.20
24426;DHT22;12611;44.446;26.000;2023-05-10T14:53:40;20.60;59.90
24426;DHT22;12611;44.446;26.000;2023-05-10T14:56:09;20.60;59.80
24426;DHT22;12611;44.446;26.000;2023-05-10T14:58:38;20.70;59.20
24426;DHT22;12611;44.446;26.000;2023-05-10T15:01:07;20.70;58.90
24426;DHT22;12611;44.446;26.000;2023-05-10T15:03:35;20.70;58.90
24426;DHT22;12611;44.446;26.000;2023-05-10T15:06:05;20.80;58.50
24426;DHT22;12611;44.446;26.000;2023-05-10T15:08:33;20.80;58.60
24426;DHT22;12611;44.446;26.000;2023-05-10T15:11:02;20.80;58.40
24426;DHT22;12611;44.446;26.000;2023-05-10T15:13:30;20.80;58.40
24426;DHT22;12611;44.446;26.000;2023-05-10T15:16:00;20.70;58.20
24426;DHT22;12611;44.446;26.000;2023-05-10T15:18:28;20.70;58.10
24426;DHT22;12611;44.446;26.000;2023-05-10T15:20:56;20.80;58.40
24426;DHT22;12611;44.446;26.000;2023-05-10T15:23:26;20.70;58.30
24426;DHT22;12611;44.446;26.000;2023-05-10T15:25:56;20.80;58.50
24426;DHT22;12611;44.446;26.000;2023-05-10T15:28:24;20.80;58.40
24426;DHT22;12611;44.446;26.000;2023-05-10T15:30:53;20.80;58.40
24426;DHT22;12611;44.446;26.000;2023-05-10T15:33:22;20.80;57.90
24426;DHT22;12611;44.446;26.000;2023-05-10T15:35:51;20.80;57.80
24426;DHT22;12611;44.446;26.000;2023-05-10T15:38:20;20.80;57.40
24426;DHT22;12611;44.446;26.000;2023-05-10T15:40:49;20.80;57.10
24426;DHT22;12611;44.446;26.000;2023-05-10T15:43:17;20.80;57.20
24426;DHT22;12611;44.446;26.000;2023-05-10T15:45:46;20.80;57.10
24426;DHT22;12611;44.446;26.000;2023-05-10T15:48:14;20.80;57.30
24426;DHT22;12611;44.446;26.000;2023-05-10T15:50:44;20.70;57.30
24426;DHT22;12611;44.446;26.000;2023-05-10T15:53:15;20.70;57.10
24426;DHT22;12611;44.446;26.000;2023-05-10T15:55:43;20.70;57.00
24426;DHT22;12611;44.446;26.000;2023-05-10T15:58:11;20.70;57.20
24426;DHT22;12611;44.446;26.000;2023-05-10T16:00:39;20.60;57.20